sensor_id;sensor_type;location;lat;lon;timestamp;pressure;altitude;pressure_sealevel;temperature;humidity
29839;BME280;18669;53.356;-1.464;2023-04-26T00:00:11;100947.25;;;7.53;100.00
29839;BME280;18669;53.356;-1.464;2023-04-26T00:02:57;100944.59;;;7.54;100.00
29839;BME280;18669;53.356;-1.464;2023-04-26T00:05:43;100947.28;;;7.36;100.00
29839;BME280;18669;53.356;-1.464;2023-04-26T00:08:28;100939.41;;;7.31;100.00
29839;BME280;18669;53.356;-1.464;2023-04-26T00:11:12;100939.47;;;7.19;100.00
29839;BME280;18669;53.356;-1.464;2023-04-26T00:13:58;100938.59;;;7.13;100.00
29839;BME280;18669;53.356;-1.464;2023-04-26T00:16:43;100935.09;;;7.10;100.00
29839;BME280;18669;53.356;-1.464;2023-04-26T00:19:28;100942.97;;;7.04;100.00
29839;BME280;18669;53.356;-1.464;2023-04-26T00:22:12;100938.59;;;7.04;100.00
29839;BME280;18669;53.356;-1.464;2023-04-26T00:24:58;100942.09;;;7.03;100.00
29839;BME280;18669;53.356;-1.464;2023-04-26T00:27:43;100939.47;;;6.97;100.00
29839;BME280;18669;53.356;-1.464;2023-04-26T00:30:28;100938.63;;;6.89;100.00
29839;BME280;18669;53.356;-1.464;2023-04-26T00:33:13;100931.63;;;6.83;100.00
29839;BME280;18669;53.356;-1.464;2023-04-26T00:35:58;100933.38;;;6.79;100.00
29839;BME280;18669;53.356;-1.464;2023-04-26T00:38:43;100914.19;;;6.68;100.00
29839;BME280;18669;53.356;-1.464;2023-04-26T00:41:27;100915.06;;;6.64;100.00
29839;BME280;18669;53.356;-1.464;2023-04-26T00:48:01;100912.44;;;6.64;100.00
29839;BME280;18669;53.356;-1.464;2023-04-26T00:50:47;100921.19;;;6.58;100.00
29839;BME280;18669;53.356;-1.464;2023-04-26T00:53:32;100927.28;;;6.49;100.00
29839;BME280;18669;53.356;-1.464;2023-04-26T00:56:20;100921.16;;;6.52;100.00
29839;BME280;18669;53.356;-1.464;2023-04-26T00:59:05;100921.16;;;6.47;100.00
29839;BME280;18669;53.356;-1.464;2023-04-26T01:01:50;100922.03;;;6.48;100.00
29839;BME280;18669;53.356;-1.464;2023-04-26T01:04:35;100911.56;;;6.41;100.00
29839;BME280;18669;53.356;-1.464;2023-04-26T01:07:20;100897.63;;;6.39;100.00
29839;BME280;18669;53.356;-1.464;2023-04-26T01:10:06;100905.47;;;6.39;100.00
29839;BME280;18669;53.356;-1.464;2023-04-26T01:12:52;100895.91;;;6.54;100.00
29839;BME280;18669;53.356;-1.464;2023-04-26T01:15:37;100899.38;;;6.34;100.00
29839;BME280;18669;53.356;-1.464;2023-04-26T01:18:25;100887.19;;;6.33;100.00
29839;BME280;18669;53.356;-1.464;2023-04-26T01:21:10;100884.56;;;6.27;100.00
29839;BME280;18669;53.356;-1.464;2023-04-26T01:23:55;100881.06;;;6.22;100.00
29839;BME280;18669;53.356;-1.464;2023-04-26T01:26:41;100888.91;;;6.25;100.00
29839;BME280;18669;53.356;-1.464;2023-04-26T01:29:30;100881.94;;;6.29;100.00
29839;BME280;18669;53.356;-1.464;2023-04-26T01:32:15;100881.94;;;6.13;100.00
29839;BME280;18669;53.356;-1.464;2023-04-26T01:35:00;100881.03;;;6.09;100.00
29839;BME280;18669;53.356;-1.464;2023-04-26T01:37:46;100875.78;;;6.03;100.00
29839;BME280;18669;53.356;-1.464;2023-04-26T01:40:31;100882.78;;;6.06;100.00
29839;BME280;18669;53.356;-1.464;2023-04-26T01:43:16;100878.44;;;6.05;100.00
29839;BME280;18669;53.356;-1.464;2023-04-26T01:46:03;100872.31;;;6.03;100.00
29839;BME280;18669;53.356;-1.464;2023-04-26T01:48:48;100864.50;;;6.03;100.00
29839;BME280;18669;53.356;-1.464;2023-04-26T01:51:33;100869.66;;;6.00;100.00
29839;BME280;18669;53.356;-1.464;2023-04-26T01:54:18;100854.88;;;5.94;100.00
29839;BME280;18669;53.356;-1.464;2023-04-26T01:57:03;100860.09;;;5.95;100.00
29839;BME280;18669;53.356;-1.464;2023-04-26T01:59:47;100866.19;;;5.90;100.00
29839;BME280;18669;53.356;-1.464;2023-04-26T02:02:32;100865.28;;;5.86;100.00
29839;BME280;18669;53.356;-1.464;2023-04-26T02:05:17;100853.09;;;5.85;100.00
29839;BME280;18669;53.356;-1.464;2023-04-26T02:08:02;100854.84;;;5.85;100.00
29839;BME280;18669;53.356;-1.464;2023-04-26T02:10:47;100848.72;;;5.84;100.00
29839;BME280;18669;53.356;-1.464;2023-04-26T02:13:31;100854.81;;;5.78;100.00
29839;BME280;18669;53.356;-1.464;2023-04-26T02:16:16;100855.69;;;5.73;100.00
29839;BME280;18669;53.356;-1.464;2023-04-26T02:19:01;100856.53;;;5.73;100.00
29839;BME280;18669;53.356;-1.464;2023-04-26T02:21:52;100857.44;;;5.89;100.00
29839;BME280;18669;53.356;-1.464;2023-04-26T02:24:37;100840.88;;;5.61;100.00
29839;BME280;18669;53.356;-1.464;2023-04-26T02:27:22;100839.06;;;5.50;100.00
29839;BME280;18669;53.356;-1.464;2023-04-26T02:30:07;100847.81;;;5.60;100.00
29839;BME280;18669;53.356;-1.464;2023-04-26T02:32:53;100832.16;;;5.60;100.00
29839;BME280;18669;53.356;-1.464;2023-04-26T02:35:38;100839.09;;;5.53;100.00
29839;BME280;18669;53.356;-1.464;2023-04-26T02:38:23;100837.31;;;5.51;100.00
29839;BME280;18669;53.356;-1.464;2023-04-26T02:41:11;100837.28;;;5.40;100.00
29839;BME280;18669;53.356;-1.464;2023-04-26T02:43:56;100829.44;;;5.29;100.00
29839;BME280;18669;53.356;-1.464;2023-04-26T02:46:41;100830.28;;;5.28;100.00
29839;BME280;18669;53.356;-1.464;2023-04-26T02:49:26;100838.09;;;5.23;100.00
29839;BME280;18669;53.356;-1.464;2023-04-26T02:52:11;100827.63;;;5.19;100.00
29839;BME280;18669;53.356;-1.464;2023-04-26T02:54:56;100825.91;;;5.19;100.00
29839;BME280;18669;53.356;-1.464;2023-04-26T02:57:40;100831.97;;;5.20;100.00
29839;BME280;18669;53.356;-1.464;2023-04-26T03:00:25;100822.38;;;5.13;100.00
29839;BME280;18669;53.356;-1.464;2023-04-26T03:03:11;100824.97;;;5.06;100.00
29839;BME280;18669;53.356;-1.464;2023-04-26T03:05:56;100822.34;;;5.00;100.00
29839;BME280;18669;53.356;-1.464;2023-04-26T03:08:41;100826.63;;;4.97;100.00
29839;BME280;18669;53.356;-1.464;2023-04-26T03:11:26;100824.88;;;4.91;100.00
29839;BME280;18669;53.356;-1.464;2023-04-26T03:14:11;100817.00;;;4.85;100.00
29839;BME280;18669;53.356;-1.464;2023-04-26T03:16:56;100818.75;;;4.86;100.00
29839;BME280;18669;53.356;-1.464;2023-04-26T03:19:41;100802.22;;;4.79;100.00
29839;BME280;18669;53.356;-1.464;2023-04-26T03:22:25;100810.09;;;4.85;100.00
29839;BME280;18669;53.356;-1.464;2023-04-26T03:25:10;100807.50;;;4.88;100.00
29839;BME280;18669;53.356;-1.464;2023-04-26T03:27:56;100810.03;;;4.81;100.00
29839;BME280;18669;53.356;-1.464;2023-04-26T03:30:41;100808.25;;;4.70;100.00
29839;BME280;18669;53.356;-1.464;2023-04-26T03:33:26;100812.59;;;4.68;100.00
29839;BME280;18669;53.356;-1.464;2023-04-26T03:36:11;100811.69;;;4.63;100.00
29839;BME280;18669;53.356;-1.464;2023-04-26T03:38:56;100796.00;;;4.55;100.00
29839;BME280;18669;53.356;-1.464;2023-04-26T03:41:40;100811.66;;;4.65;100.00
29839;BME280;18669;53.356;-1.464;2023-04-26T03:44:25;100807.38;;;4.68;100.00
29839;BME280;18669;53.356;-1.464;2023-04-26T03:47:10;100803.03;;;4.70;100.00
29839;BME280;18669;53.356;-1.464;2023-04-26T03:49:56;100809.13;;;4.74;100.00
29839;BME280;18669;53.356;-1.464;2023-04-26T03:52:41;100798.66;;;4.66;100.00
29839;BME280;18669;53.356;-1.464;2023-04-26T03:55:26;100809.97;;;4.70;100.00
29839;BME280;18669;53.356;-1.464;2023-04-26T03:58:11;100810.88;;;4.70;100.00
29839;BME280;18669;53.356;-1.464;2023-04-26T04:00:56;100802.19;;;4.73;100.00
29839;BME280;18669;53.356;-1.464;2023-04-26T04:03:42;100795.19;;;4.69;100.00
29839;BME280;18669;53.356;-1.464;2023-04-26T04:06:27;100796.09;;;4.69;100.00
29839;BME280;18669;53.356;-1.464;2023-04-26T04:09:11;100799.56;;;4.68;100.00
29839;BME280;18669;53.356;-1.464;2023-04-26T04:11:56;100790.00;;;4.69;100.00
29839;BME280;18669;53.356;-1.464;2023-04-26T04:14:41;100779.56;;;4.69;100.00
29839;BME280;18669;53.356;-1.464;2023-04-26T04:17:26;100792.66;;;4.83;100.00
29839;BME280;18669;53.356;-1.464;2023-04-26T04:20:11;100790.13;;;4.90;100.00
29839;BME280;18669;53.356;-1.464;2023-04-26T04:22:56;100789.25;;;4.90;100.00
29839;BME280;18669;53.356;-1.464;2023-04-26T04:25:42;100774.50;;;4.95;100.00
29839;BME280;18669;53.356;-1.464;2023-04-26T04:28:28;100773.63;;;4.91;100.00
29839;BME280;18669;53.356;-1.464;2023-04-26T04:31:14;100765.81;;;4.91;100.00
29839;BME280;18669;53.356;-1.464;2023-04-26T04:33:58;100780.59;;;4.99;100.00
29839;BME280;18669;53.356;-1.464;2023-04-26T04:36:43;100781.50;;;5.02;100.00
29839;BME280;18669;53.356;-1.464;2023-04-26T04:39:28;100787.59;;;5.09;100.00
29839;BME280;18669;53.356;-1.464;2023-04-26T04:42:13;100777.19;;;5.11;100.00
29839;BME280;18669;53.356;-1.464;2023-04-26T04:44:58;100770.22;;;5.10;100.00
29839;BME280;18669;53.356;-1.464;2023-04-26T04:47:43;100777.19;;;5.07;100.00
29839;BME280;18669;53.356;-1.464;2023-04-26T04:50:28;100783.19;;;4.99;100.00
29839;BME280;18669;53.356;-1.464;2023-04-26T04:53:15;100785.78;;;4.94;100.00
29839;BME280;18669;53.356;-1.464;2023-04-26T04:56:00;100786.63;;;4.90;100.00
29839;BME280;18669;53.356;-1.464;2023-04-26T04:58:46;100792.72;;;4.89;100.00
29839;BME280;18669;53.356;-1.464;2023-04-26T05:01:31;100782.28;;;4.84;100.00
29839;BME280;18669;53.356;-1.464;2023-04-26T05:04:16;100792.66;;;4.83;100.00
29839;BME280;18669;53.356;-1.464;2023-04-26T05:07:01;100797.03;;;4.82;100.00
29839;BME280;18669;53.356;-1.464;2023-04-26T05:09:46;100791.81;;;4.82;100.00
29839;BME280;18669;53.356;-1.464;2023-04-26T05:12:31;100793.50;;;4.78;100.00
29839;BME280;18669;53.356;-1.464;2023-04-26T05:15:17;100793.50;;;4.74;100.00
29839;BME280;18669;53.356;-1.464;2023-04-26T05:18:01;100796.09;;;4.69;100.00
29839;BME280;18669;53.356;-1.464;2023-04-26T05:20:46;100783.00;;;4.65;100.00
29839;BME280;18669;53.356;-1.464;2023-04-26T05:23:31;100788.19;;;4.61;100.00
29839;BME280;18669;53.356;-1.464;2023-04-26T05:26:17;100797.75;;;4.58;100.00
29839;BME280;18669;53.356;-1.464;2023-04-26T05:29:02;100799.44;;;4.53;100.00
29839;BME280;18669;53.356;-1.464;2023-04-26T05:31:47;100796.88;;;4.54;100.00
29839;BME280;18669;53.356;-1.464;2023-04-26T05:34:32;100793.41;;;4.61;100.00
29839;BME280;18669;53.356;-1.464;2023-04-26T05:37:17;100794.31;;;4.67;100.00
29839;BME280;18669;53.356;-1.464;2023-04-26T05:40:02;100790.91;;;4.78;100.00
29839;BME280;18669;53.356;-1.464;2023-04-26T05:42:49;100800.56;;;4.92;100.00
29839;BME280;18669;53.356;-1.464;2023-04-26T05:45:37;100791.91;;;5.02;100.00
29839;BME280;18669;53.356;-1.464;2023-04-26T05:48:23;100795.41;;;5.06;100.00
29839;BME280;18669;53.356;-1.464;2023-04-26T05:51:08;100804.06;;;4.97;100.00
29839;BME280;18669;53.356;-1.464;2023-04-26T05:57:24;100804.13;;;5.06;100.00
29839;BME280;18669;53.356;-1.464;2023-04-26T06:00:10;100806.72;;;5.08;100.00
29839;BME280;18669;53.356;-1.464;2023-04-26T06:02:56;100793.69;;;5.08;100.00
29839;BME280;18669;53.356;-1.464;2023-04-26T06:05:40;100790.16;;;5.00;100.00
29839;BME280;18669;53.356;-1.464;2023-04-26T06:08:26;100798.06;;;5.15;100.00
29839;BME280;18669;53.356;-1.464;2023-04-26T06:11:12;100801.59;;;5.28;100.00
29839;BME280;18669;53.356;-1.464;2023-04-26T06:13:57;100796.41;;;5.30;100.00
29839;BME280;18669;53.356;-1.464;2023-04-26T06:16:41;100794.66;;;5.35;100.00
29839;BME280;18669;53.356;-1.464;2023-04-26T06:19:26;100792.03;;;5.30;100.00
29839;BME280;18669;53.356;-1.464;2023-04-26T06:22:11;100792.03;;;5.27;100.00
29839;BME280;18669;53.356;-1.464;2023-04-26T06:24:56;100797.25;;;5.27;100.00
29839;BME280;18669;53.356;-1.464;2023-04-26T06:27:41;100794.63;;;5.26;100.00
29839;BME280;18669;53.356;-1.464;2023-04-26T06:30:26;100800.72;;;5.28;100.00
29839;BME280;18669;53.356;-1.464;2023-04-26T06:33:11;100799.00;;;5.34;100.00
29839;BME280;18669;53.356;-1.464;2023-04-26T06:35:55;100800.78;;;5.45;100.00
29839;BME280;18669;53.356;-1.464;2023-04-26T06:38:40;100803.44;;;5.60;100.00
29839;BME280;18669;53.356;-1.464;2023-04-26T06:41:25;100793.03;;;5.74;100.00
29839;BME280;18669;53.356;-1.464;2023-04-26T06:44:10;100801.81;;;6.03;100.00
29839;BME280;18669;53.356;-1.464;2023-04-26T06:46:55;100810.53;;;6.31;100.00
29839;BME280;18669;53.356;-1.464;2023-04-26T06:49:40;100805.25;;;6.57;100.00
29839;BME280;18669;53.356;-1.464;2023-04-26T06:52:25;100806.09;;;6.89;100.00
29839;BME280;18669;53.356;-1.464;2023-04-26T06:55:10;100811.22;;;7.23;100.00
29839;BME280;18669;53.356;-1.464;2023-04-26T06:57:55;100797.97;;;7.59;100.00
29839;BME280;18669;53.356;-1.464;2023-04-26T07:00:40;100800.34;;;7.95;100.00
29839;BME280;18669;53.356;-1.464;2023-04-26T07:03:26;100800.28;;;8.02;100.00
29839;BME280;18669;53.356;-1.464;2023-04-26T07:06:11;100806.38;;;8.07;100.00
29839;BME280;18669;53.356;-1.464;2023-04-26T07:08:59;100804.50;;;8.25;100.00
29839;BME280;18669;53.356;-1.464;2023-04-26T07:11:46;100799.16;;;8.36;100.00
29839;BME280;18669;53.356;-1.464;2023-04-26T07:14:31;100797.34;;;8.49;100.00
29839;BME280;18669;53.356;-1.464;2023-04-26T07:17:16;100807.63;;;8.69;100.00
29839;BME280;18669;53.356;-1.464;2023-04-26T07:20:01;100804.00;;;8.81;100.00
29839;BME280;18669;53.356;-1.464;2023-04-26T07:22:46;100808.19;;;8.99;97.02
29839;BME280;18669;53.356;-1.464;2023-04-26T07:25:31;100785.19;;;9.20;100.00
29839;BME280;18669;53.356;-1.464;2023-04-26T07:28:15;100800.63;;;9.46;91.21
29839;BME280;18669;53.356;-1.464;2023-04-26T07:31:00;100794.44;;;9.50;85.49
29839;BME280;18669;53.356;-1.464;2023-04-26T07:33:45;100795.22;;;9.59;84.58
29839;BME280;18669;53.356;-1.464;2023-04-26T07:36:30;100793.19;;;9.76;79.91
29839;BME280;18669;53.356;-1.464;2023-04-26T07:39:15;100800.19;;;9.79;78.95
29839;BME280;18669;53.356;-1.464;2023-04-26T07:42:00;100798.31;;;9.87;76.04
29839;BME280;18669;53.356;-1.464;2023-04-26T07:44:46;100784.16;;;9.94;76.60
29839;BME280;18669;53.356;-1.464;2023-04-26T07:47:31;100787.59;;;10.01;73.18
29839;BME280;18669;53.356;-1.464;2023-04-26T07:50:16;100784.41;;;10.35;71.99
29839;BME280;18669;53.356;-1.464;2023-04-26T07:53:01;100792.19;;;10.43;68.48
29839;BME280;18669;53.356;-1.464;2023-04-26T07:55:46;100786.59;;;10.62;68.99
29839;BME280;18669;53.356;-1.464;2023-04-26T07:58:31;100788.41;;;10.59;67.46
29839;BME280;18669;53.356;-1.464;2023-04-26T08:01:16;100787.94;;;10.83;69.29
29839;BME280;18669;53.356;-1.464;2023-04-26T08:04:01;100786.03;;;10.93;66.02
29839;BME280;18669;53.356;-1.464;2023-04-26T08:06:46;100796.06;;;11.17;67.42
29839;BME280;18669;53.356;-1.464;2023-04-26T08:09:31;100786.78;;;11.42;66.32
29839;BME280;18669;53.356;-1.464;2023-04-26T08:12:16;100788.59;;;11.38;64.07
29839;BME280;18669;53.356;-1.464;2023-04-26T08:15:02;100790.84;;;11.57;65.64
29839;BME280;18669;53.356;-1.464;2023-04-26T08:17:51;100783.38;;;11.76;63.02
29839;BME280;18669;53.356;-1.464;2023-04-26T08:20:36;100774.13;;;11.97;60.34
29839;BME280;18669;53.356;-1.464;2023-04-26T08:23:21;100767.03;;;12.35;60.80
29839;BME280;18669;53.356;-1.464;2023-04-26T08:26:06;100772.94;;;12.78;57.31
29839;BME280;18669;53.356;-1.464;2023-04-26T08:28:51;100765.28;;;12.69;54.24
29839;BME280;18669;53.356;-1.464;2023-04-26T08:31:36;100771.06;;;12.82;53.96
29839;BME280;18669;53.356;-1.464;2023-04-26T08:34:20;100768.22;;;12.90;52.91
29839;BME280;18669;53.356;-1.464;2023-04-26T08:37:06;100760.66;;;12.77;53.21
29839;BME280;18669;53.356;-1.464;2023-04-26T08:39:50;100762.47;;;12.75;53.26
29839;BME280;18669;53.356;-1.464;2023-04-26T08:42:44;100766.75;;;12.79;53.36
29839;BME280;18669;53.356;-1.464;2023-04-26T08:45:30;100758.50;;;12.59;53.69
29839;BME280;18669;53.356;-1.464;2023-04-26T08:48:16;100759.09;;;13.02;53.85
29839;BME280;18669;53.356;-1.464;2023-04-26T08:51:02;100760.84;;;13.33;52.98
29839;BME280;18669;53.356;-1.464;2023-04-26T08:53:47;100754.28;;;14.03;48.73
29839;BME280;18669;53.356;-1.464;2023-04-26T08:56:34;100754.38;;;14.52;48.32
29839;BME280;18669;53.356;-1.464;2023-04-26T08:59:19;100758.91;;;14.23;45.67
29839;BME280;18669;53.356;-1.464;2023-04-26T09:02:06;100754.06;;;14.61;45.58
29839;BME280;18669;53.356;-1.464;2023-04-26T09:04:51;100755.78;;;14.88;45.65
29839;BME280;18669;53.356;-1.464;2023-04-26T09:07:46;100750.44;;;15.81;44.21
29839;BME280;18669;53.356;-1.464;2023-04-26T09:10:31;100751.03;;;16.53;43.69
29839;BME280;18669;53.356;-1.464;2023-04-26T09:13:16;100745.47;;;17.57;41.65
29839;BME280;18669;53.356;-1.464;2023-04-26T09:16:00;100748.50;;;17.11;40.97
29839;BME280;18669;53.356;-1.464;2023-04-26T09:18:49;100745.13;;;17.45;40.43
29839;BME280;18669;53.356;-1.464;2023-04-26T09:21:44;100745.50;;;17.19;41.13
29839;BME280;18669;53.356;-1.464;2023-04-26T09:24:49;100744.16;;;17.66;40.11
29839;BME280;18669;53.356;-1.464;2023-04-26T09:27:39;100741.53;;;17.47;38.35
29839;BME280;18669;53.356;-1.464;2023-04-26T09:30:24;100751.34;;;16.66;40.31
29839;BME280;18669;53.356;-1.464;2023-04-26T09:33:09;100749.28;;;17.32;41.32
29839;BME280;18669;53.356;-1.464;2023-04-26T09:35:54;100742.97;;;18.61;38.02
29839;BME280;18669;53.356;-1.464;2023-04-26T09:38:42;100743.28;;;18.72;37.48
29839;BME280;18669;53.356;-1.464;2023-04-26T09:41:45;100745.06;;;19.23;36.58
29839;BME280;18669;53.356;-1.464;2023-04-26T09:44:31;100744.69;;;19.45;35.72
29839;BME280;18669;53.356;-1.464;2023-04-26T09:47:16;100737.44;;;19.63;35.49
29839;BME280;18669;53.356;-1.464;2023-04-26T09:50:01;100738.97;;;20.00;34.60
29839;BME280;18669;53.356;-1.464;2023-04-26T09:52:46;100732.94;;;20.86;32.72
29839;BME280;18669;53.356;-1.464;2023-04-26T09:55:31;100736.09;;;21.64;30.32
29839;BME280;18669;53.356;-1.464;2023-04-26T09:58:16;100731.00;;;20.59;31.24
29839;BME280;18669;53.356;-1.464;2023-04-26T10:01:01;100733.72;;;21.17;30.51
29839;BME280;18669;53.356;-1.464;2023-04-26T10:03:47;100728.63;;;20.54;31.53
29839;BME280;18669;53.356;-1.464;2023-04-26T10:06:33;100727.16;;;21.36;31.95
29839;BME280;18669;53.356;-1.464;2023-04-26T10:09:18;100725.81;;;21.43;30.23
29839;BME280;18669;53.356;-1.464;2023-04-26T10:12:03;100726.75;;;20.85;31.74
29839;BME280;18669;53.356;-1.464;2023-04-26T10:14:48;100720.78;;;20.51;29.53
29839;BME280;18669;53.356;-1.464;2023-04-26T10:17:33;100724.72;;;21.04;28.57
29839;BME280;18669;53.356;-1.464;2023-04-26T10:20:19;100731.28;;;20.54;27.21
29839;BME280;18669;53.356;-1.464;2023-04-26T10:23:12;100720.75;;;18.96;28.32
29839;BME280;18669;53.356;-1.464;2023-04-26T10:26:03;100716.78;;;18.18;31.50
29839;BME280;18669;53.356;-1.464;2023-04-26T10:35:11;100702.94;;;15.98;33.55
29839;BME280;18669;53.356;-1.464;2023-04-26T10:40:47;100707.44;;;15.95;34.27
29839;BME280;18669;53.356;-1.464;2023-04-26T10:43:34;100698.41;;;15.57;35.21
29839;BME280;18669;53.356;-1.464;2023-04-26T10:46:39;100706.22;;;15.82;35.56
29839;BME280;18669;53.356;-1.464;2023-04-26T10:49:24;100705.13;;;16.70;34.00
29839;BME280;18669;53.356;-1.464;2023-04-26T10:54:58;100683.13;;;17.07;32.44
29839;BME280;18669;53.356;-1.464;2023-04-26T10:57:53;100692.56;;;16.74;33.82
29839;BME280;18669;53.356;-1.464;2023-04-26T11:00:39;100690.88;;;16.11;34.18
29839;BME280;18669;53.356;-1.464;2023-04-26T11:03:24;100700.28;;;15.75;34.90
29839;BME280;18669;53.356;-1.464;2023-04-26T11:06:10;100679.13;;;15.74;35.67
29839;BME280;18669;53.356;-1.464;2023-04-26T11:08:59;100694.25;;;15.49;35.46
29839;BME280;18669;53.356;-1.464;2023-04-26T11:11:50;100700.72;;;15.42;35.33
29839;BME280;18669;53.356;-1.464;2023-04-26T11:14:37;100703.53;;;15.15;36.69
29839;BME280;18669;53.356;-1.464;2023-04-26T11:17:22;100699.81;;;14.97;36.74
29839;BME280;18669;53.356;-1.464;2023-04-26T11:20:15;100700.91;;;14.66;37.40
29839;BME280;18669;53.356;-1.464;2023-04-26T11:23:00;100705.06;;;13.97;38.80
29839;BME280;18669;53.356;-1.464;2023-04-26T11:25:45;100708.16;;;13.56;39.64
29839;BME280;18669;53.356;-1.464;2023-04-26T11:28:34;100710.16;;;13.48;38.92
29839;BME280;18669;53.356;-1.464;2023-04-26T11:31:19;100699.09;;;13.35;40.25
29839;BME280;18669;53.356;-1.464;2023-04-26T11:34:04;100708.50;;;13.46;40.91
29839;BME280;18669;53.356;-1.464;2023-04-26T11:36:49;100702.59;;;13.66;41.49
29839;BME280;18669;53.356;-1.464;2023-04-26T11:39:35;100713.16;;;13.66;41.42
29839;BME280;18669;53.356;-1.464;2023-04-26T11:42:24;100716.84;;;13.60;41.95
29839;BME280;18669;53.356;-1.464;2023-04-26T11:45:10;100704.47;;;13.32;41.95
29839;BME280;18669;53.356;-1.464;2023-04-26T11:47:56;100719.97;;;13.45;42.13
29839;BME280;18669;53.356;-1.464;2023-04-26T11:50:41;100717.47;;;13.40;41.25
29839;BME280;18669;53.356;-1.464;2023-04-26T11:53:37;100715.22;;;13.56;39.75
29839;BME280;18669;53.356;-1.464;2023-04-26T11:56:24;100723.84;;;13.33;40.52
29839;BME280;18669;53.356;-1.464;2023-04-26T11:59:08;100718.78;;;13.25;40.57
29839;BME280;18669;53.356;-1.464;2023-04-26T12:01:55;100724.44;;;13.42;39.51
29839;BME280;18669;53.356;-1.464;2023-04-26T12:04:40;100722.78;;;13.38;39.21
29839;BME280;18669;53.356;-1.464;2023-04-26T12:07:25;100721.84;;;13.11;39.95
29839;BME280;18669;53.356;-1.464;2023-04-26T12:10:18;100722.63;;;13.15;39.76
29839;BME280;18669;53.356;-1.464;2023-04-26T12:13:03;100727.94;;;13.13;40.59
29839;BME280;18669;53.356;-1.464;2023-04-26T12:15:48;100716.59;;;13.09;40.92
29839;BME280;18669;53.356;-1.464;2023-04-26T12:18:34;100717.59;;;13.35;39.74
29839;BME280;18669;53.356;-1.464;2023-04-26T12:21:19;100716.66;;;13.38;39.82
29839;BME280;18669;53.356;-1.464;2023-04-26T12:24:04;100724.34;;;13.46;39.19
29839;BME280;18669;53.356;-1.464;2023-04-26T12:26:49;100702.81;;;13.28;40.19
29839;BME280;18669;53.356;-1.464;2023-04-26T12:29:34;100718.31;;;13.42;39.75
29839;BME280;18669;53.356;-1.464;2023-04-26T12:32:19;100720.31;;;13.32;40.15
29839;BME280;18669;53.356;-1.464;2023-04-26T12:35:04;100716.03;;;13.28;39.66
29839;BME280;18669;53.356;-1.464;2023-04-26T12:37:51;100715.19;;;13.27;39.99
29839;BME280;18669;53.356;-1.464;2023-04-26T12:40:41;100717.88;;;13.56;40.35
29839;BME280;18669;53.356;-1.464;2023-04-26T12:43:26;100715.91;;;13.63;39.68
29839;BME280;18669;53.356;-1.464;2023-04-26T12:46:11;100725.38;;;13.70;39.66
29839;BME280;18669;53.356;-1.464;2023-04-26T12:48:56;100722.56;;;13.46;40.52
29839;BME280;18669;53.356;-1.464;2023-04-26T12:51:40;100721.09;;;13.36;40.95
29839;BME280;18669;53.356;-1.464;2023-04-26T12:54:25;100723.28;;;13.51;41.42
29839;BME280;18669;53.356;-1.464;2023-04-26T12:57:10;100722.25;;;13.57;40.94
29839;BME280;18669;53.356;-1.464;2023-04-26T12:59:55;100721.81;;;13.71;41.34
29839;BME280;18669;53.356;-1.464;2023-04-26T13:02:40;100725.38;;;13.97;40.63
29839;BME280;18669;53.356;-1.464;2023-04-26T13:05:25;100721.59;;;14.04;40.48
29839;BME280;18669;53.356;-1.464;2023-04-26T13:08:10;100731.22;;;14.07;39.94
29839;BME280;18669;53.356;-1.464;2023-04-26T13:10:54;100719.81;;;14.05;39.62
29839;BME280;18669;53.356;-1.464;2023-04-26T13:13:40;100731.13;;;14.10;39.95
29839;BME280;18669;53.356;-1.464;2023-04-26T13:16:25;100734.88;;;14.02;39.65
29839;BME280;18669;53.356;-1.464;2023-04-26T13:19:10;100733.44;;;14.19;39.98
29839;BME280;18669;53.356;-1.464;2023-04-26T13:21:55;100742.22;;;14.46;39.85
29839;BME280;18669;53.356;-1.464;2023-04-26T13:24:40;100736.59;;;14.56;38.88
29839;BME280;18669;53.356;-1.464;2023-04-26T13:27:25;100737.88;;;14.44;38.61
29839;BME280;18669;53.356;-1.464;2023-04-26T13:30:10;100735.31;;;14.42;38.18
29839;BME280;18669;53.356;-1.464;2023-04-26T13:32:55;100739.09;;;14.35;39.29
29839;BME280;18669;53.356;-1.464;2023-04-26T13:35:39;100730.13;;;14.65;37.91
29839;BME280;18669;53.356;-1.464;2023-04-26T13:38:24;100742.31;;;14.94;37.44
29839;BME280;18669;53.356;-1.464;2023-04-26T13:41:09;100733.59;;;15.14;39.26
29839;BME280;18669;53.356;-1.464;2023-04-26T13:43:54;100737.22;;;15.35;36.85
29839;BME280;18669;53.356;-1.464;2023-04-26T13:46:39;100731.06;;;15.35;37.99
29839;BME280;18669;53.356;-1.464;2023-04-26T13:49:24;100735.25;;;15.41;37.72
29839;BME280;18669;53.356;-1.464;2023-04-26T13:52:10;100729.78;;;15.45;37.23
29839;BME280;18669;53.356;-1.464;2023-04-26T13:54:55;100738.75;;;15.41;38.60
29839;BME280;18669;53.356;-1.464;2023-04-26T13:57:40;100737.25;;;15.12;36.95
29839;BME280;18669;53.356;-1.464;2023-04-26T14:00:24;100737.25;;;15.12;37.54
29839;BME280;18669;53.356;-1.464;2023-04-26T14:03:09;100732.34;;;15.25;38.33
29839;BME280;18669;53.356;-1.464;2023-04-26T14:05:54;100722.63;;;15.47;37.83
29839;BME280;18669;53.356;-1.464;2023-04-26T14:08:39;100724.34;;;15.71;37.59
29839;BME280;18669;53.356;-1.464;2023-04-26T14:11:24;100722.59;;;15.71;38.01
29839;BME280;18669;53.356;-1.464;2023-04-26T14:14:09;100732.16;;;15.29;38.31
29839;BME280;18669;53.356;-1.464;2023-04-26T14:16:54;100711.22;;;14.75;38.52
29839;BME280;18669;53.356;-1.464;2023-04-26T14:19:39;100726.59;;;14.64;39.89
29839;BME280;18669;53.356;-1.464;2023-04-26T14:22:25;100731.41;;;14.78;40.30
29839;BME280;18669;53.356;-1.464;2023-04-26T14:25:10;100718.56;;;14.91;39.58
29839;BME280;18669;53.356;-1.464;2023-04-26T14:27:55;100713.97;;;14.96;38.67
29839;BME280;18669;53.356;-1.464;2023-04-26T14:30:40;100718.25;;;15.00;38.44
29839;BME280;18669;53.356;-1.464;2023-04-26T14:33:26;100717.13;;;15.06;39.16